sensor_id;sensor_type;location;lat;lon;timestamp;P1;durP1;ratioP1;P2;durP2;ratioP2
31990;SDS011;18508;49.386;8.370;2024-01-15T00:01:43;27.80;;;11.55;;
31990;SDS011;18508;49.386;8.370;2024-01-15T00:04:11;31.30;;;11.73;;
31990;SDS011;18508;49.386;8.370;2024-01-15T00:06:40;31.75;;;11.77;;
31990;SDS011;18508;49.386;8.370;2024-01-15T00:09:10;26.80;;;10.23;;
31990;SDS011;18508;49.386;8.370;2024-01-15T00:11:38;35.42;;;12.32;;
31990;SDS011;18508;49.386;8.370;2024-01-15T00:14:07;35.92;;;11.05;;
31990;SDS011;18508;49.386;8.370;2024-01-15T00:16:39;33.72;;;11.95;;
31990;SDS011;18508;49.386;8.370;2024-01-15T00:19:08;31.30;;;11.43;;
31990;SDS011;18508;49.386;8.370;2024-01-15T00:21:39;32.70;;;11.88;;
31990;SDS011;18508;49.386;8.370;2024-01-15T00:24:07;35.83;;;11.75;;
31990;SDS011;18508;49.386;8.370;2024-01-15T00:26:38;28.38;;;11.80;;
31990;SDS011;18508;49.386;8.370;2024-01-15T00:29:06;28.20;;;10.88;;
31990;SDS011;18508;49.386;8.370;2024-01-15T00:31:35;35.78;;;11.95;;
31990;SDS011;18508;49.386;8.370;2024-01-15T00:34:06;33.40;;;12.80;;
31990;SDS011;18508;49.386;8.370;2024-01-15T00:36:35;33.50;;;12.43;;
31990;SDS011;18508;49.386;8.370;2024-01-15T00:39:03;38.78;;;12.10;;
31990;SDS011;18508;49.386;8.370;2024-01-15T00:41:32;32.45;;;12.65;;
31990;SDS011;18508;49.386;8.370;2024-01-15T00:44:02;42.13;;;13.93;;
31990;SDS011;18508;49.386;8.370;2024-01-15T00:46:31;43.75;;;12.98;;
31990;SDS011;18508;49.386;8.370;2024-01-15T00:48:59;39.60;;;12.90;;
31990;SDS011;18508;49.386;8.370;2024-01-15T00:51:27;36.67;;;13.13;;
31990;SDS011;18508;49.386;8.370;2024-01-15T00:53:56;38.05;;;12.75;;
31990;SDS011;18508;49.386;8.370;2024-01-15T00:56:24;37.88;;;13.90;;
31990;SDS011;18508;49.386;8.370;2024-01-15T00:58:53;36.75;;;13.93;;
31990;SDS011;18508;49.386;8.370;2024-01-15T01:01:23;39.03;;;14.10;;
31990;SDS011;18508;49.386;8.370;2024-01-15T01:03:51;39.88;;;14.35;;
31990;SDS011;18508;49.386;8.370;2024-01-15T01:06:20;36.25;;;12.68;;
31990;SDS011;18508;49.386;8.370;2024-01-15T01:08:48;43.00;;;14.23;;
31990;SDS011;18508;49.386;8.370;2024-01-15T01:11:17;41.13;;;14.50;;
31990;SDS011;18508;49.386;8.370;2024-01-15T01:13:46;41.80;;;15.82;;
31990;SDS011;18508;49.386;8.370;2024-01-15T01:16:15;39.38;;;13.63;;
31990;SDS011;18508;49.386;8.370;2024-01-15T01:18:45;38.42;;;12.63;;
31990;SDS011;18508;49.386;8.370;2024-01-15T01:21:13;40.60;;;13.27;;
31990;SDS011;18508;49.386;8.370;2024-01-15T01:23:43;42.78;;;14.57;;
31990;SDS011;18508;49.386;8.370;2024-01-15T01:26:14;45.55;;;14.88;;
31990;SDS011;18508;49.386;8.370;2024-01-15T01:28:43;36.33;;;13.73;;
31990;SDS011;18508;49.386;8.370;2024-01-15T01:31:11;45.53;;;14.52;;
31990;SDS011;18508;49.386;8.370;2024-01-15T01:33:41;37.00;;;13.70;;
31990;SDS011;18508;49.386;8.370;2024-01-15T01:36:11;40.00;;;13.45;;
31990;SDS011;18508;49.386;8.370;2024-01-15T01:38:39;37.90;;;13.82;;
31990;SDS011;18508;49.386;8.370;2024-01-15T01:41:08;38.33;;;14.00;;
31990;SDS011;18508;49.386;8.370;2024-01-15T01:43:37;36.50;;;14.05;;
31990;SDS011;18508;49.386;8.370;2024-01-15T01:46:05;35.22;;;13.13;;
31990;SDS011;18508;49.386;8.370;2024-01-15T01:48:34;41.05;;;14.25;;
31990;SDS011;18508;49.386;8.370;2024-01-15T01:51:04;37.60;;;13.68;;
31990;SDS011;18508;49.386;8.370;2024-01-15T01:53:34;38.08;;;14.48;;
31990;SDS011;18508;49.386;8.370;2024-01-15T01:56:04;39.75;;;14.02;;
31990;SDS011;18508;49.386;8.370;2024-01-15T01:58:34;43.83;;;14.63;;
31990;SDS011;18508;49.386;8.370;2024-01-15T02:01:02;43.25;;;14.55;;
31990;SDS011;18508;49.386;8.370;2024-01-15T02:03:31;38.55;;;14.23;;
31990;SDS011;18508;49.386;8.370;2024-01-15T02:06:00;35.53;;;12.40;;
31990;SDS011;18508;49.386;8.370;2024-01-15T02:08:28;29.52;;;11.65;;
31990;SDS011;18508;49.386;8.370;2024-01-15T02:10:58;31.60;;;11.80;;
31990;SDS011;18508;49.386;8.370;2024-01-15T02:13:26;35.10;;;13.18;;
31990;SDS011;18508;49.386;8.370;2024-01-15T02:15:55;35.30;;;11.63;;
31990;SDS011;18508;49.386;8.370;2024-01-15T02:18:23;31.90;;;11.60;;
31990;SDS011;18508;49.386;8.370;2024-01-15T02:20:52;33.85;;;11.75;;
31990;SDS011;18508;49.386;8.370;2024-01-15T02:23:22;30.52;;;11.48;;
31990;SDS011;18508;49.386;8.370;2024-01-15T02:25:50;33.10;;;11.45;;
31990;SDS011;18508;49.386;8.370;2024-01-15T02:28:18;33.05;;;12.10;;
31990;SDS011;18508;49.386;8.370;2024-01-15T02:30:47;33.75;;;11.38;;
31990;SDS011;18508;49.386;8.370;2024-01-15T02:33:16;32.80;;;10.95;;
31990;SDS011;18508;49.386;8.370;2024-01-15T02:35:44;32.25;;;11.32;;
31990;SDS011;18508;49.386;8.370;2024-01-15T02:38:16;26.47;;;10.27;;
31990;SDS011;18508;49.386;8.370;2024-01-15T02:40:46;28.50;;;10.20;;
31990;SDS011;18508;49.386;8.370;2024-01-15T02:43:15;25.05;;;9.60;;
31990;SDS011;18508;49.386;8.370;2024-01-15T02:45:45;26.33;;;10.20;;
31990;SDS011;18508;49.386;8.370;2024-01-15T02:48:14;29.35;;;11.80;;
31990;SDS011;18508;49.386;8.370;2024-01-15T02:50:43;28.95;;;9.80;;
31990;SDS011;18508;49.386;8.370;2024-01-15T02:53:11;28.45;;;9.57;;
31990;SDS011;18508;49.386;8.370;2024-01-15T02:55:40;28.10;;;10.88;;
31990;SDS011;18508;49.386;8.370;2024-01-15T02:58:10;32.33;;;10.73;;
31990;SDS011;18508;49.386;8.370;2024-01-15T03:00:38;30.17;;;12.00;;
31990;SDS011;18508;49.386;8.370;2024-01-15T03:03:07;29.98;;;10.13;;
31990;SDS011;18508;49.386;8.370;2024-01-15T03:05:35;27.27;;;10.65;;
31990;SDS011;18508;49.386;8.370;2024-01-15T03:08:04;31.83;;;11.38;;
31990;SDS011;18508;49.386;8.370;2024-01-15T03:10:33;26.83;;;9.98;;
31990;SDS011;18508;49.386;8.370;2024-01-15T03:13:01;27.27;;;10.27;;
31990;SDS011;18508;49.386;8.370;2024-01-15T03:15:31;38.92;;;11.18;;
31990;SDS011;18508;49.386;8.370;2024-01-15T03:17:59;32.97;;;11.75;;
31990;SDS011;18508;49.386;8.370;2024-01-15T03:20:28;38.92;;;11.75;;
31990;SDS011;18508;49.386;8.370;2024-01-15T03:22:56;32.50;;;11.18;;
31990;SDS011;18508;49.386;8.370;2024-01-15T03:25:25;32.00;;;11.40;;
31990;SDS011;18508;49.386;8.370;2024-01-15T03:27:54;37.95;;;12.18;;
31990;SDS011;18508;49.386;8.370;2024-01-15T03:30:23;28.42;;;10.85;;
31990;SDS011;18508;49.386;8.370;2024-01-15T03:32:53;39.42;;;12.30;;
31990;SDS011;18508;49.386;8.370;2024-01-15T03:35:21;28.23;;;10.77;;
31990;SDS011;18508;49.386;8.370;2024-01-15T03:37:49;23.13;;;10.20;;
31990;SDS011;18508;49.386;8.370;2024-01-15T03:40:17;32.63;;;10.70;;
31990;SDS011;18508;49.386;8.370;2024-01-15T03:42:49;30.90;;;11.05;;
31990;SDS011;18508;49.386;8.370;2024-01-15T03:45:17;30.10;;;10.48;;
31990;SDS011;18508;49.386;8.370;2024-01-15T03:47:46;30.00;;;11.48;;
31990;SDS011;18508;49.386;8.370;2024-01-15T03:50:22;30.42;;;12.27;;
31990;SDS011;18508;49.386;8.370;2024-01-15T03:52:50;32.88;;;9.65;;
31990;SDS011;18508;49.386;8.370;2024-01-15T03:55:19;29.30;;;10.75;;
31990;SDS011;18508;49.386;8.370;2024-01-15T03:57:47;27.38;;;9.38;;
31990;SDS011;18508;49.386;8.370;2024-01-15T04:00:16;27.02;;;9.07;;
31990;SDS011;18508;49.386;8.370;2024-01-15T04:02:44;29.50;;;10.13;;
31990;SDS011;18508;49.386;8.370;2024-01-15T04:05:13;32.55;;;9.63;;
31990;SDS011;18508;49.386;8.370;2024-01-15T04:07:43;28.95;;;10.25;;
31990;SDS011;18508;49.386;8.370;2024-01-15T04:10:11;30.05;;;10.68;;
31990;SDS011;18508;49.386;8.370;2024-01-15T04:12:40;27.70;;;10.50;;
31990;SDS011;18508;49.386;8.370;2024-01-15T04:15:08;25.23;;;9.50;;
31990;SDS011;18508;49.386;8.370;2024-01-15T04:17:37;32.35;;;11.32;;
31990;SDS011;18508;49.386;8.370;2024-01-15T04:20:06;30.92;;;10.45;;
31990;SDS011;18508;49.386;8.370;2024-01-15T04:22:34;31.13;;;11.60;;
31990;SDS011;18508;49.386;8.370;2024-01-15T04:25:05;31.73;;;11.75;;
31990;SDS011;18508;49.386;8.370;2024-01-15T04:27:34;28.83;;;10.63;;
31990;SDS011;18508;49.386;8.370;2024-01-15T04:30:02;29.77;;;9.68;;
31990;SDS011;18508;49.386;8.370;2024-01-15T04:32:31;30.35;;;10.98;;
31990;SDS011;18508;49.386;8.370;2024-01-15T04:35:00;27.23;;;10.77;;
31990;SDS011;18508;49.386;8.370;2024-01-15T04:37:29;25.45;;;10.55;;
31990;SDS011;18508;49.386;8.370;2024-01-15T04:39:57;30.92;;;10.38;;
31990;SDS011;18508;49.386;8.370;2024-01-15T04:42:31;32.08;;;11.30;;
31990;SDS011;18508;49.386;8.370;2024-01-15T04:44:59;31.05;;;11.63;;
31990;SDS011;18508;49.386;8.370;2024-01-15T04:47:30;30.92;;;10.80;;
31990;SDS011;18508;49.386;8.370;2024-01-15T04:49:58;30.55;;;10.50;;
31990;SDS011;18508;49.386;8.370;2024-01-15T04:52:27;32.22;;;10.43;;
31990;SDS011;18508;49.386;8.370;2024-01-15T04:54:55;24.83;;;9.52;;
31990;SDS011;18508;49.386;8.370;2024-01-15T04:57:24;26.85;;;9.30;;
31990;SDS011;18508;49.386;8.370;2024-01-15T04:59:55;35.42;;;11.77;;
31990;SDS011;18508;49.386;8.370;2024-01-15T05:02:24;32.88;;;11.65;;
31990;SDS011;18508;49.386;8.370;2024-01-15T05:04:53;34.92;;;11.55;;
31990;SDS011;18508;49.386;8.370;2024-01-15T05:07:21;37.85;;;12.10;;
31990;SDS011;18508;49.386;8.370;2024-01-15T05:09:49;30.60;;;11.75;;
31990;SDS011;18508;49.386;8.370;2024-01-15T05:12:18;26.75;;;10.48;;
31990;SDS011;18508;49.386;8.370;2024-01-15T05:14:46;32.15;;;10.95;;
31990;SDS011;18508;49.386;8.370;2024-01-15T05:17:16;31.10;;;11.20;;
31990;SDS011;18508;49.386;8.370;2024-01-15T05:19:46;31.92;;;11.88;;
31990;SDS011;18508;49.386;8.370;2024-01-15T05:22:15;31.65;;;11.65;;
31990;SDS011;18508;49.386;8.370;2024-01-15T05:24:44;32.17;;;12.00;;
31990;SDS011;18508;49.386;8.370;2024-01-15T05:27:12;32.85;;;11.70;;
31990;SDS011;18508;49.386;8.370;2024-01-15T05:29:41;34.78;;;11.50;;
31990;SDS011;18508;49.386;8.370;2024-01-15T05:32:09;24.02;;;8.77;;
31990;SDS011;18508;49.386;8.370;2024-01-15T05:34:39;24.70;;;8.90;;
31990;SDS011;18508;49.386;8.370;2024-01-15T05:37:07;26.23;;;9.38;;
31990;SDS011;18508;49.386;8.370;2024-01-15T05:39:36;20.27;;;9.10;;
31990;SDS011;18508;49.386;8.370;2024-01-15T05:42:04;23.95;;;9.25;;
31990;SDS011;18508;49.386;8.370;2024-01-15T05:44:33;24.17;;;9.13;;
31990;SDS011;18508;49.386;8.370;2024-01-15T05:47:02;28.05;;;9.95;;
31990;SDS011;18508;49.386;8.370;2024-01-15T05:49:32;26.52;;;9.65;;
31990;SDS011;18508;49.386;8.370;2024-01-15T05:52:01;24.85;;;9.00;;
31990;SDS011;18508;49.386;8.370;2024-01-15T05:54:30;21.88;;;8.95;;
31990;SDS011;18508;49.386;8.370;2024-01-15T05:56:58;25.13;;;9.40;;
31990;SDS011;18508;49.386;8.370;2024-01-15T05:59:27;22.80;;;9.00;;
31990;SDS011;18508;49.386;8.370;2024-01-15T06:01:59;27.17;;;10.77;;
31990;SDS011;18508;49.386;8.370;2024-01-15T06:04:27;24.38;;;9.15;;
31990;SDS011;18508;49.386;8.370;2024-01-15T06:06:56;26.48;;;9.43;;
31990;SDS011;18508;49.386;8.370;2024-01-15T06:09:26;25.63;;;10.85;;
31990;SDS011;18508;49.386;8.370;2024-01-15T06:11:54;27.63;;;12.07;;
31990;SDS011;18508;49.386;8.370;2024-01-15T06:14:23;26.75;;;10.15;;
31990;SDS011;18508;49.386;8.370;2024-01-15T06:16:51;33.83;;;11.45;;
31990;SDS011;18508;49.386;8.370;2024-01-15T06:19:20;31.65;;;11.70;;
31990;SDS011;18508;49.386;8.370;2024-01-15T06:21:49;33.58;;;12.15;;
31990;SDS011;18508;49.386;8.370;2024-01-15T06:24:17;30.23;;;12.23;;
31990;SDS011;18508;49.386;8.370;2024-01-15T06:26:48;31.13;;;11.90;;
31990;SDS011;18508;49.386;8.370;2024-01-15T06:29:16;30.67;;;12.70;;
31990;SDS011;18508;49.386;8.370;2024-01-15T06:31:45;34.80;;;12.63;;
31990;SDS011;18508;49.386;8.370;2024-01-15T06:34:15;34.05;;;12.35;;
31990;SDS011;18508;49.386;8.370;2024-01-15T06:36:44;32.63;;;12.75;;
31990;SDS011;18508;49.386;8.370;2024-01-15T06:39:13;33.10;;;13.05;;
31990;SDS011;18508;49.386;8.370;2024-01-15T06:41:41;31.80;;;12.40;;
31990;SDS011;18508;49.386;8.370;2024-01-15T06:44:12;38.40;;;12.45;;
31990;SDS011;18508;49.386;8.370;2024-01-15T06:46:41;35.05;;;13.00;;
31990;SDS011;18508;49.386;8.370;2024-01-15T06:49:10;32.63;;;13.38;;
31990;SDS011;18508;49.386;8.370;2024-01-15T06:51:39;33.20;;;12.93;;
31990;SDS011;18508;49.386;8.370;2024-01-15T06:54:09;32.13;;;12.55;;
31990;SDS011;18508;49.386;8.370;2024-01-15T06:56:37;32.17;;;13.45;;
31990;SDS011;18508;49.386;8.370;2024-01-15T06:59:05;35.22;;;13.57;;
31990;SDS011;18508;49.386;8.370;2024-01-15T07:01:36;39.80;;;13.45;;
31990;SDS011;18508;49.386;8.370;2024-01-15T07:04:04;32.83;;;12.00;;
31990;SDS011;18508;49.386;8.370;2024-01-15T07:06:33;33.33;;;13.05;;
31990;SDS011;18508;49.386;8.370;2024-01-15T07:09:02;39.97;;;15.10;;
31990;SDS011;18508;49.386;8.370;2024-01-15T07:11:31;33.80;;;13.45;;
31990;SDS011;18508;49.386;8.370;2024-01-15T07:14:00;38.55;;;15.02;;
31990;SDS011;18508;49.386;8.370;2024-01-15T07:16:28;30.00;;;13.73;;
31990;SDS011;18508;49.386;8.370;2024-01-15T07:19:05;31.50;;;12.13;;
31990;SDS011;18508;49.386;8.370;2024-01-15T07:21:34;31.80;;;12.73;;
31990;SDS011;18508;49.386;8.370;2024-01-15T07:24:02;34.13;;;13.20;;
31990;SDS011;18508;49.386;8.370;2024-01-15T07:26:30;36.72;;;14.25;;
31990;SDS011;18508;49.386;8.370;2024-01-15T07:29:00;32.15;;;13.20;;
31990;SDS011;18508;49.386;8.370;2024-01-15T07:31:29;30.35;;;13.38;;
31990;SDS011;18508;49.386;8.370;2024-01-15T07:33:59;35.22;;;13.48;;
31990;SDS011;18508;49.386;8.370;2024-01-15T07:36:29;38.05;;;14.80;;
31990;SDS011;18508;49.386;8.370;2024-01-15T07:38:58;36.85;;;13.88;;
31990;SDS011;18508;49.386;8.370;2024-01-15T07:41:25;28.52;;;12.68;;
31990;SDS011;18508;49.386;8.370;2024-01-15T07:43:54;34.10;;;14.65;;
31990;SDS011;18508;49.386;8.370;2024-01-15T07:46:23;33.30;;;14.25;;
31990;SDS011;18508;49.386;8.370;2024-01-15T07:48:52;39.63;;;14.57;;
31990;SDS011;18508;49.386;8.370;2024-01-15T07:51:23;37.88;;;15.38;;
31990;SDS011;18508;49.386;8.370;2024-01-15T07:53:53;37.15;;;15.20;;
31990;SDS011;18508;49.386;8.370;2024-01-15T07:56:22;39.10;;;16.42;;
31990;SDS011;18508;49.386;8.370;2024-01-15T07:58:51;33.17;;;15.15;;
31990;SDS011;18508;49.386;8.370;2024-01-15T08:01:19;33.90;;;13.90;;
31990;SDS011;18508;49.386;8.370;2024-01-15T08:03:48;34.35;;;14.60;;
31990;SDS011;18508;49.386;8.370;2024-01-15T08:06:17;31.63;;;14.05;;
31990;SDS011;18508;49.386;8.370;2024-01-15T08:08:45;35.53;;;14.25;;
31990;SDS011;18508;49.386;8.370;2024-01-15T08:11:15;34.50;;;14.77;;
31990;SDS011;18508;49.386;8.370;2024-01-15T08:13:44;33.55;;;14.27;;
31990;SDS011;18508;49.386;8.370;2024-01-15T08:16:12;33.92;;;13.70;;
31990;SDS011;18508;49.386;8.370;2024-01-15T08:18:41;33.15;;;14.43;;
31990;SDS011;18508;49.386;8.370;2024-01-15T08:21:10;37.13;;;14.73;;
31990;SDS011;18508;49.386;8.370;2024-01-15T08:23:40;30.98;;;12.88;;
31990;SDS011;18508;49.386;8.370;2024-01-15T08:26:10;31.77;;;13.00;;
31990;SDS011;18508;49.386;8.370;2024-01-15T08:28:40;35.78;;;13.40;;
31990;SDS011;18508;49.386;8.370;2024-01-15T08:31:09;31.77;;;12.90;;
31990;SDS011;18508;49.386;8.370;2024-01-15T08:33:38;41.80;;;14.60;;
31990;SDS011;18508;49.386;8.370;2024-01-15T08:36:07;36.25;;;14.88;;
31990;SDS011;18508;49.386;8.370;2024-01-15T08:38:36;34.20;;;13.93;;
31990;SDS011;18508;49.386;8.370;2024-01-15T08:41:05;34.20;;;13.65;;
31990;SDS011;18508;49.386;8.370;2024-01-15T08:43:34;32.83;;;14.23;;
31990;SDS011;18508;49.386;8.370;2024-01-15T08:46:05;33.33;;;13.70;;
31990;SDS011;18508;49.386;8.370;2024-01-15T08:48:34;35.85;;;14.75;;
31990;SDS011;18508;49.386;8.370;2024-01-15T08:51:03;32.90;;;12.75;;
31990;SDS011;18508;49.386;8.370;2024-01-15T08:53:31;33.38;;;12.77;;
31990;SDS011;18508;49.386;8.370;2024-01-15T08:56:00;31.17;;;13.55;;
31990;SDS011;18508;49.386;8.370;2024-01-15T08:58:29;31.00;;;13.68;;
31990;SDS011;18508;49.386;8.370;2024-01-15T09:00:59;31.63;;;12.75;;
31990;SDS011;18508;49.386;8.370;2024-01-15T09:03:29;33.47;;;13.70;;
31990;SDS011;18508;49.386;8.370;2024-01-15T09:05:58;31.60;;;14.38;;
31990;SDS011;18508;49.386;8.370;2024-01-15T09:08:27;29.65;;;13.95;;
31990;SDS011;18508;49.386;8.370;2024-01-15T09:10:56;27.25;;;12.23;;
31990;SDS011;18508;49.386;8.370;2024-01-15T09:13:25;26.95;;;11.80;;
31990;SDS011;18508;49.386;8.370;2024-01-15T09:15:54;25.98;;;10.93;;
31990;SDS011;18508;49.386;8.370;2024-01-15T09:18:23;22.65;;;9.85;;
31990;SDS011;18508;49.386;8.370;2024-01-15T09:20:54;27.65;;;10.90;;
31990;SDS011;18508;49.386;8.370;2024-01-15T09:23:24;26.45;;;11.07;;
31990;SDS011;18508;49.386;8.370;2024-01-15T09:25:55;23.05;;;10.48;;
31990;SDS011;18508;49.386;8.370;2024-01-15T09:28:23;22.73;;;10.30;;
31990;SDS011;18508;49.386;8.370;2024-01-15T09:30:52;24.33;;;11.63;;
31990;SDS011;18508;49.386;8.370;2024-01-15T09:33:21;23.08;;;9.18;;
31990;SDS011;18508;49.386;8.370;2024-01-15T09:35:50;23.10;;;10.85;;
31990;SDS011;18508;49.386;8.370;2024-01-15T09:38:20;27.02;;;11.73;;
31990;SDS011;18508;49.386;8.370;2024-01-15T09:40:50;23.85;;;10.25;;
31990;SDS011;18508;49.386;8.370;2024-01-15T09:43:19;25.98;;;11.68;;
31990;SDS011;18508;49.386;8.370;2024-01-15T09:45:48;24.83;;;11.00;;
31990;SDS011;18508;49.386;8.370;2024-01-15T09:48:17;24.00;;;12.18;;
31990;SDS011;18508;49.386;8.370;2024-01-15T09:50:46;24.88;;;11.27;;
31990;SDS011;18508;49.386;8.370;2024-01-15T09:53:15;22.35;;;9.82;;
31990;SDS011;18508;49.386;8.370;2024-01-15T09:55:46;23.08;;;9.93;;
31990;SDS011;18508;49.386;8.370;2024-01-15T10:00:45;23.98;;;9.75;;
31990;SDS011;18508;49.386;8.370;2024-01-15T10:03:16;22.77;;;10.13;;
31990;SDS011;18508;49.386;8.370;2024-01-15T10:05:48;24.75;;;10.38;;
31990;SDS011;18508;49.386;8.370;2024-01-15T10:08:20;25.25;;;10.25;;
31990;SDS011;18508;49.386;8.370;2024-01-15T10:10:52;23.25;;;10.02;;
31990;SDS011;18508;49.386;8.370;2024-01-15T10:13:20;23.33;;;9.73;;
31990;SDS011;18508;49.386;8.370;2024-01-15T10:15:50;26.60;;;10.45;;
31990;SDS011;18508;49.386;8.370;2024-01-15T10:18:19;25.52;;;9.88;;
31990;SDS011;18508;49.386;8.370;2024-01-15T10:20:48;22.60;;;9.88;;
31990;SDS011;18508;49.386;8.370;2024-01-15T10:23:17;25.67;;;10.98;;
31990;SDS011;18508;49.386;8.370;2024-01-15T10:25:46;26.40;;;10.77;;
31990;SDS011;18508;49.386;8.370;2024-01-15T10:28:17;24.45;;;9.38;;
31990;SDS011;18508;49.386;8.370;2024-01-15T10:30:47;21.58;;;10.48;;
31990;SDS011;18508;49.386;8.370;2024-01-15T10:33:21;19.40;;;9.35;;
31990;SDS011;18508;49.386;8.370;2024-01-15T10:35:53;23.55;;;10.15;;
31990;SDS011;18508;49.386;8.370;2024-01-15T10:38:22;23.83;;;10.45;;
31990;SDS011;18508;49.386;8.370;2024-01-15T10:40:51;24.70;;;11.00;;
31990;SDS011;18508;49.386;8.370;2024-01-15T10:43:21;20.73;;;9.15;;
31990;SDS011;18508;49.386;8.370;2024-01-15T10:45:54;23.90;;;10.88;;
31990;SDS011;18508;49.386;8.370;2024-01-15T10:48:26;24.63;;;11.70;;
31990;SDS011;18508;49.386;8.370;2024-01-15T10:50:57;24.95;;;11.20;;
31990;SDS011;18508;49.386;8.370;2024-01-15T10:53:26;21.33;;;10.10;;
31990;SDS011;18508;49.386;8.370;2024-01-15T10:55:55;25.05;;;9.98;;
31990;SDS011;18508;49.386;8.370;2024-01-15T11:00:58;21.88;;;10.18;;
31990;SDS011;18508;49.386;8.370;2024-01-15T11:03:28;22.23;;;10.40;;
31990;SDS011;18508;49.386;8.370;2024-01-15T11:05:57;25.17;;;10.23;;
31990;SDS011;18508;49.386;8.370;2024-01-15T11:08:25;20.05;;;10.52;;
31990;SDS011;18508;49.386;8.370;2024-01-15T11:10:54;23.52;;;10.77;;
31990;SDS011;18508;49.386;8.370;2024-01-15T11:13:40;21.73;;;9.38;;
31990;SDS011;18508;49.386;8.370;2024-01-15T11:16:10;20.88;;;9.57;;
31990;SDS011;18508;49.386;8.370;2024-01-15T11:18:39;16.83;;;7.97;;
31990;SDS011;18508;49.386;8.370;2024-01-15T11:21:21;17.33;;;7.32;;
31990;SDS011;18508;49.386;8.370;2024-01-15T11:23:54;15.63;;;7.03;;
31990;SDS011;18508;49.386;8.370;2024-01-15T11:26:30;16.30;;;7.30;;
31990;SDS011;18508;49.386;8.370;2024-01-15T11:29:31;15.48;;;6.82;;
31990;SDS011;18508;49.386;8.370;2024-01-15T11:32:04;16.70;;;7.53;;
31990;SDS011;18508;49.386;8.370;2024-01-15T11:34:52;16.05;;;7.07;;
31990;SDS011;18508;49.386;8.370;2024-01-15T11:37:21;13.02;;;6.78;;
31990;SDS011;18508;49.386;8.370;2024-01-15T11:39:54;13.65;;;6.43;;
31990;SDS011;18508;49.386;8.370;2024-01-15T11:42:23;14.68;;;7.07;;
31990;SDS011;18508;49.386;8.370;2024-01-15T11:45:00;14.95;;;7.10;;
31990;SDS011;18508;49.386;8.370;2024-01-15T11:48:00;15.20;;;7.55;;
31990;SDS011;18508;49.386;8.370;2024-01-15T11:50:42;15.90;;;8.18;;
31990;SDS011;18508;49.386;8.370;2024-01-15T11:53:21;14.07;;;6.97;;
31990;SDS011;18508;49.386;8.370;2024-01-15T11:55:57;14.70;;;6.82;;
31990;SDS011;18508;49.386;8.370;2024-01-15T11:58:26;19.92;;;8.25;;
31990;SDS011;18508;49.386;8.370;2024-01-15T12:00:56;13.68;;;6.60;;
31990;SDS011;18508;49.386;8.370;2024-01-15T12:03:25;14.95;;;8.13;;
31990;SDS011;18508;49.386;8.370;2024-01-15T12:05:53;19.13;;;8.60;;
31990;SDS011;18508;49.386;8.370;2024-01-15T12:08:22;20.27;;;8.48;;
31990;SDS011;18508;49.386;8.370;2024-01-15T12:10:51;18.65;;;8.15;;
31990;SDS011;18508;49.386;8.370;2024-01-15T12:13:23;17.83;;;8.50;;
31990;SDS011;18508;49.386;8.370;2024-01-15T12:15:54;16.45;;;8.40;;
31990;SDS011;18508;49.386;8.370;2024-01-15T12:18:23;18.23;;;7.95;;
31990;SDS011;18508;49.386;8.370;2024-01-15T12:20:54;15.93;;;7.35;;
31990;SDS011;18508;49.386;8.370;2024-01-15T12:23:23;18.77;;;8.30;;
31990;SDS011;18508;49.386;8.370;2024-01-15T12:25:53;17.75;;;8.05;;
31990;SDS011;18508;49.386;8.370;2024-01-15T12:28:23;17.88;;;8.45;;
31990;SDS011;18508;49.386;8.370;2024-01-15T12:30:55;21.30;;;9.05;;
31990;SDS011;18508;49.386;8.370;2024-01-15T12:33:28;20.40;;;9.23;;
31990;SDS011;18508;49.386;8.370;2024-01-15T12:35:57;18.17;;;8.27;;
31990;SDS011;18508;49.386;8.370;2024-01-15T12:38:28;17.83;;;8.30;;
31990;SDS011;18508;49.386;8.370;2024-01-15T12:40:57;16.90;;;8.82;;
31990;SDS011;18508;49.386;8.370;2024-01-15T12:43:27;15.80;;;8.27;;
31990;SDS011;18508;49.386;8.370;2024-01-15T12:45:56;17.02;;;7.35;;
31990;SDS011;18508;49.386;8.370;2024-01-15T12:48:25;17.45;;;8.73;;
31990;SDS011;18508;49.386;8.370;2024-01-15T12:50:55;19.85;;;8.35;;
31990;SDS011;18508;49.386;8.370;2024-01-15T12:53:23;17.00;;;8.18;;
31990;SDS011;18508;49.386;8.370;2024-01-15T12:55:52;15.57;;;7.70;;
31990;SDS011;18508;49.386;8.370;2024-01-15T12:58:21;17.90;;;8.18;;
31990;SDS011;18508;49.386;8.370;2024-01-15T13:00:49;20.50;;;8.77;;
31990;SDS011;18508;49.386;8.370;2024-01-15T13:03:18;14.88;;;6.78;;
31990;SDS011;18508;49.386;8.370;2024-01-15T13:05:49;15.55;;;7.40;;
31990;SDS011;18508;49.386;8.370;2024-01-15T13:08:20;19.58;;;8.88;;
31990;SDS011;18508;49.386;8.370;2024-01-15T13:10:51;15.18;;;7.47;;
31990;SDS011;18508;49.386;8.370;2024-01-15T13:13:23;17.92;;;7.47;;
31990;SDS011;18508;49.386;8.370;2024-01-15T13:15:51;18.75;;;7.65;;
31990;SDS011;18508;49.386;8.370;2024-01-15T13:18:20;18.50;;;8.82;;
31990;SDS011;18508;49.386;8.370;2024-01-15T13:20:48;14.75;;;8.02;;
31990;SDS011;18508;49.386;8.370;2024-01-15T13:23:17;18.67;;;6.47;;
31990;SDS011;18508;49.386;8.370;2024-01-15T13:25:47;16.05;;;7.25;;
31990;SDS011;18508;49.386;8.370;2024-01-15T13:28:20;14.60;;;7.90;;
31990;SDS011;18508;49.386;8.370;2024-01-15T13:30:51;18.50;;;7.75;;
31990;SDS011;18508;49.386;8.370;2024-01-15T13:33:20;16.80;;;7.85;;
31990;SDS011;18508;49.386;8.370;2024-01-15T13:35:48;13.43;;;6.65;;
31990;SDS011;18508;49.386;8.370;2024-01-15T13:38:19;12.90;;;6.90;;
31990;SDS011;18508;49.386;8.370;2024-01-15T13:40:49;18.10;;;8.05;;
31990;SDS011;18508;49.386;8.370;2024-01-15T13:43:17;15.52;;;7.90;;
31990;SDS011;18508;49.386;8.370;2024-01-15T13:45:46;15.15;;;7.25;;
31990;SDS011;18508;49.386;8.370;2024-01-15T13:48:14;13.52;;;6.53;;
31990;SDS011;18508;49.386;8.370;2024-01-15T13:50:43;14.55;;;7.03;;
31990;SDS011;18508;49.386;8.370;2024-01-15T13:53:11;18.25;;;7.70;;
31990;SDS011;18508;49.386;8.370;2024-01-15T13:55:42;13.75;;;7.10;;
31990;SDS011;18508;49.386;8.370;2024-01-15T13:58:12;13.63;;;6.60;;
31990;SDS011;18508;49.386;8.370;2024-01-15T14:00:40;18.50;;;7.30;;
31990;SDS011;18508;49.386;8.370;2024-01-15T14:03:09;13.73;;;7.40;;
31990;SDS011;18508;49.386;8.370;2024-01-15T14:05:41;16.70;;;7.22;;
31990;SDS011;18508;49.386;8.370;2024-01-15T14:08:09;13.77;;;6.50;;
31990;SDS011;18508;49.386;8.370;2024-01-15T14:10:38;13.20;;;6.40;;
31990;SDS011;18508;49.386;8.370;2024-01-15T14:13:09;11.82;;;6.22;;
31990;SDS011;18508;49.386;8.370;2024-01-15T14:15:41;13.25;;;6.30;;
31990;SDS011;18508;49.386;8.370;2024-01-15T14:18:09;16.08;;;7.20;;
31990;SDS011;18508;49.386;8.370;2024-01-15T14:20:40;27.10;;;11.98;;
31990;SDS011;18508;49.386;8.370;2024-01-15T14:23:09;16.98;;;6.80;;
31990;SDS011;18508;49.386;8.370;2024-01-15T14:25:39;19.50;;;7.63;;
31990;SDS011;18508;49.386;8.370;2024-01-15T14:28:08;17.00;;;9.10;;
31990;SDS011;18508;49.386;8.370;2024-01-15T14:30:44;16.92;;;9.45;;
31990;SDS011;18508;49.386;8.370;2024-01-15T14:33:18;12.27;;;6.60;;
31990;SDS011;18508;49.386;8.370;2024-01-15T14:35:47;13.73;;;7.18;;
31990;SDS011;18508;49.386;8.370;2024-01-15T14:38:15;14.68;;;7.03;;
31990;SDS011;18508;49.386;8.370;2024-01-15T14:40:44;14.93;;;7.95;;
31990;SDS011;18508;49.386;8.370;2024-01-15T14:43:12;14.50;;;7.30;;
31990;SDS011;18508;49.386;8.370;2024-01-15T14:45:40;12.23;;;6.68;;